sensor_id;sensor_type;location;lat;lon;timestamp;P1;durP1;ratioP1;P2;durP2;ratioP2
60030;SDS011;45901;47.600;9.890;2022-11-21T00:00:30;0.43;;;0.30;;
60030;SDS011;45901;47.600;9.890;2022-11-21T00:02:58;0.30;;;0.30;;
60030;SDS011;45901;47.600;9.890;2022-11-21T00:05:26;1.70;;;0.40;;
60030;SDS011;45901;47.600;9.890;2022-11-21T00:07:55;0.73;;;0.40;;
60030;SDS011;45901;47.600;9.890;2022-11-21T00:10:23;0.97;;;0.50;;
60030;SDS011;45901;47.600;9.890;2022-11-21T00:12:53;1.83;;;0.40;;
60030;SDS011;45901;47.600;9.890;2022-11-21T00:15:22;0.77;;;0.50;;
60030;SDS011;45901;47.600;9.890;2022-11-21T00:17:51;1.13;;;0.60;;
60030;SDS011;45901;47.600;9.890;2022-11-21T00:20:19;0.77;;;0.50;;
60030;SDS011;45901;47.600;9.890;2022-11-21T00:22:47;0.30;;;0.30;;
60030;SDS011;45901;47.600;9.890;2022-11-21T00:25:15;0.80;;;0.50;;
60030;SDS011;45901;47.600;9.890;2022-11-21T00:27:43;1.53;;;0.50;;
60030;SDS011;45901;47.600;9.890;2022-11-21T00:30:12;1.43;;;0.60;;
60030;SDS011;45901;47.600;9.890;2022-11-21T00:32:40;1.27;;;0.50;;
60030;SDS011;45901;47.600;9.890;2022-11-21T00:35:07;0.93;;;0.40;;
60030;SDS011;45901;47.600;9.890;2022-11-21T00:37:34;0.40;;;0.30;;
60030;SDS011;45901;47.600;9.890;2022-11-21T00:40:02;1.93;;;0.50;;
60030;SDS011;45901;47.600;9.890;2022-11-21T00:42:30;0.40;;;0.40;;
60030;SDS011;45901;47.600;9.890;2022-11-21T00:44:57;1.10;;;0.53;;
60030;SDS011;45901;47.600;9.890;2022-11-21T00:47:26;0.70;;;0.40;;
60030;SDS011;45901;47.600;9.890;2022-11-21T00:49:53;0.60;;;0.50;;
60030;SDS011;45901;47.600;9.890;2022-11-21T00:52:20;1.17;;;0.40;;
60030;SDS011;45901;47.600;9.890;2022-11-21T00:54:47;1.07;;;0.70;;
60030;SDS011;45901;47.600;9.890;2022-11-21T00:57:15;0.30;;;0.30;;
60030;SDS011;45901;47.600;9.890;2022-11-21T00:59:43;1.50;;;0.50;;
60030;SDS011;45901;47.600;9.890;2022-11-21T01:02:10;3.83;;;0.80;;
60030;SDS011;45901;47.600;9.890;2022-11-21T01:04:39;0.90;;;0.40;;
60030;SDS011;45901;47.600;9.890;2022-11-21T01:07:06;2.33;;;0.40;;
60030;SDS011;45901;47.600;9.890;2022-11-21T01:09:33;1.80;;;0.30;;
60030;SDS011;45901;47.600;9.890;2022-11-21T01:12:00;1.23;;;0.50;;
60030;SDS011;45901;47.600;9.890;2022-11-21T01:14:28;0.80;;;0.43;;
60030;SDS011;45901;47.600;9.890;2022-11-21T01:16:55;1.87;;;0.43;;
60030;SDS011;45901;47.600;9.890;2022-11-21T01:19:22;1.83;;;0.50;;
60030;SDS011;45901;47.600;9.890;2022-11-21T01:21:51;0.67;;;0.40;;
60030;SDS011;45901;47.600;9.890;2022-11-21T01:24:18;3.20;;;0.60;;
60030;SDS011;45901;47.600;9.890;2022-11-21T01:26:45;0.67;;;0.33;;
60030;SDS011;45901;47.600;9.890;2022-11-21T01:29:15;1.43;;;0.50;;
60030;SDS011;45901;47.600;9.890;2022-11-21T01:31:42;5.03;;;0.80;;
60030;SDS011;45901;47.600;9.890;2022-11-21T01:34:10;2.13;;;0.50;;
60030;SDS011;45901;47.600;9.890;2022-11-21T01:36:39;3.10;;;0.40;;
60030;SDS011;45901;47.600;9.890;2022-11-21T01:39:07;5.10;;;0.50;;
60030;SDS011;45901;47.600;9.890;2022-11-21T01:41:38;1.77;;;0.60;;
60030;SDS011;45901;47.600;9.890;2022-11-21T01:44:09;2.33;;;0.57;;
60030;SDS011;45901;47.600;9.890;2022-11-21T01:46:44;2.73;;;0.40;;
60030;SDS011;45901;47.600;9.890;2022-11-21T01:49:12;1.53;;;0.50;;
60030;SDS011;45901;47.600;9.890;2022-11-21T01:51:43;4.27;;;0.60;;
60030;SDS011;45901;47.600;9.890;2022-11-21T01:54:21;3.53;;;0.50;;
60030;SDS011;45901;47.600;9.890;2022-11-21T01:56:53;1.00;;;0.43;;
60030;SDS011;45901;47.600;9.890;2022-11-21T01:59:25;1.53;;;0.70;;
60030;SDS011;45901;47.600;9.890;2022-11-21T02:01:56;2.67;;;0.40;;
60030;SDS011;45901;47.600;9.890;2022-11-21T02:04:27;3.17;;;0.80;;
60030;SDS011;45901;47.600;9.890;2022-11-21T02:06:58;1.23;;;0.43;;
60030;SDS011;45901;47.600;9.890;2022-11-21T02:09:28;3.40;;;0.50;;
60030;SDS011;45901;47.600;9.890;2022-11-21T02:11:57;4.97;;;0.90;;
60030;SDS011;45901;47.600;9.890;2022-11-21T02:14:30;1.90;;;0.50;;
60030;SDS011;45901;47.600;9.890;2022-11-21T02:16:59;2.83;;;0.67;;
60030;SDS011;45901;47.600;9.890;2022-11-21T02:19:33;6.67;;;0.73;;
60030;SDS011;45901;47.600;9.890;2022-11-21T02:22:10;4.20;;;0.53;;
60030;SDS011;45901;47.600;9.890;2022-11-21T02:24:46;5.03;;;0.80;;
60030;SDS011;45901;47.600;9.890;2022-11-21T02:27:27;1.77;;;0.70;;
60030;SDS011;45901;47.600;9.890;2022-11-21T02:29:55;2.63;;;0.60;;
60030;SDS011;45901;47.600;9.890;2022-11-21T02:32:22;3.00;;;0.50;;
60030;SDS011;45901;47.600;9.890;2022-11-21T02:34:57;3.17;;;0.70;;
60030;SDS011;45901;47.600;9.890;2022-11-21T02:37:24;2.80;;;0.50;;
60030;SDS011;45901;47.600;9.890;2022-11-21T02:39:51;1.97;;;0.60;;
60030;SDS011;45901;47.600;9.890;2022-11-21T02:42:22;2.23;;;0.50;;
60030;SDS011;45901;47.600;9.890;2022-11-21T02:44:56;2.63;;;0.30;;
60030;SDS011;45901;47.600;9.890;2022-11-21T02:47:33;1.87;;;0.50;;
60030;SDS011;45901;47.600;9.890;2022-11-21T02:50:04;2.33;;;0.63;;
60030;SDS011;45901;47.600;9.890;2022-11-21T02:52:38;4.23;;;1.33;;
60030;SDS011;45901;47.600;9.890;2022-11-21T02:55:06;1.50;;;0.50;;
60030;SDS011;45901;47.600;9.890;2022-11-21T02:57:37;1.33;;;0.50;;
60030;SDS011;45901;47.600;9.890;2022-11-21T03:00:04;2.93;;;0.47;;
60030;SDS011;45901;47.600;9.890;2022-11-21T03:02:33;0.80;;;0.40;;
60030;SDS011;45901;47.600;9.890;2022-11-21T03:05:00;2.00;;;0.50;;
60030;SDS011;45901;47.600;9.890;2022-11-21T03:07:29;1.80;;;0.60;;
60030;SDS011;45901;47.600;9.890;2022-11-21T03:09:56;3.00;;;0.43;;
60030;SDS011;45901;47.600;9.890;2022-11-21T03:12:24;2.80;;;0.57;;
60030;SDS011;45901;47.600;9.890;2022-11-21T03:14:52;1.17;;;0.30;;
60030;SDS011;45901;47.600;9.890;2022-11-21T03:17:20;1.00;;;0.40;;
60030;SDS011;45901;47.600;9.890;2022-11-21T03:19:47;1.40;;;0.30;;
60030;SDS011;45901;47.600;9.890;2022-11-21T03:22:14;1.60;;;0.60;;
60030;SDS011;45901;47.600;9.890;2022-11-21T03:24:41;4.90;;;0.67;;
60030;SDS011;45901;47.600;9.890;2022-11-21T03:27:09;3.67;;;0.60;;
60030;SDS011;45901;47.600;9.890;2022-11-21T03:29:36;1.07;;;0.30;;
60030;SDS011;45901;47.600;9.890;2022-11-21T03:32:05;3.20;;;0.40;;
60030;SDS011;45901;47.600;9.890;2022-11-21T03:34:32;1.50;;;0.50;;
60030;SDS011;45901;47.600;9.890;2022-11-21T03:36:59;1.10;;;0.40;;
60030;SDS011;45901;47.600;9.890;2022-11-21T03:39:26;1.90;;;0.60;;
60030;SDS011;45901;47.600;9.890;2022-11-21T03:41:55;2.20;;;0.30;;
60030;SDS011;45901;47.600;9.890;2022-11-21T03:44:22;0.60;;;0.40;;
60030;SDS011;45901;47.600;9.890;2022-11-21T03:46:50;1.03;;;0.30;;
60030;SDS011;45901;47.600;9.890;2022-11-21T03:49:19;3.10;;;0.43;;
60030;SDS011;45901;47.600;9.890;2022-11-21T03:51:46;2.00;;;0.50;;
60030;SDS011;45901;47.600;9.890;2022-11-21T03:54:14;1.47;;;0.40;;
60030;SDS011;45901;47.600;9.890;2022-11-21T03:56:41;2.30;;;0.33;;
60030;SDS011;45901;47.600;9.890;2022-11-21T03:59:08;1.07;;;0.33;;
60030;SDS011;45901;47.600;9.890;2022-11-21T04:01:35;1.77;;;0.27;;
60030;SDS011;45901;47.600;9.890;2022-11-21T04:04:05;2.60;;;0.70;;
60030;SDS011;45901;47.600;9.890;2022-11-21T04:06:33;2.10;;;0.40;;
60030;SDS011;45901;47.600;9.890;2022-11-21T04:09:00;1.27;;;0.40;;
60030;SDS011;45901;47.600;9.890;2022-11-21T04:11:28;1.53;;;0.50;;
60030;SDS011;45901;47.600;9.890;2022-11-21T04:13:55;1.07;;;0.33;;
60030;SDS011;45901;47.600;9.890;2022-11-21T04:16:22;1.40;;;0.50;;
60030;SDS011;45901;47.600;9.890;2022-11-21T04:18:49;2.43;;;0.30;;
60030;SDS011;45901;47.600;9.890;2022-11-21T04:21:16;2.57;;;0.60;;
60030;SDS011;45901;47.600;9.890;2022-11-21T04:23:45;2.67;;;0.40;;
60030;SDS011;45901;47.600;9.890;2022-11-21T04:26:12;1.27;;;0.30;;
60030;SDS011;45901;47.600;9.890;2022-11-21T04:28:39;1.80;;;0.40;;
60030;SDS011;45901;47.600;9.890;2022-11-21T04:31:07;4.40;;;0.50;;
60030;SDS011;45901;47.600;9.890;2022-11-21T04:33:34;1.30;;;0.43;;
60030;SDS011;45901;47.600;9.890;2022-11-21T04:36:02;1.90;;;0.50;;
60030;SDS011;45901;47.600;9.890;2022-11-21T04:38:29;3.53;;;0.60;;
60030;SDS011;45901;47.600;9.890;2022-11-21T04:40:58;0.67;;;0.30;;
60030;SDS011;45901;47.600;9.890;2022-11-21T04:43:25;1.47;;;0.50;;
60030;SDS011;45901;47.600;9.890;2022-11-21T04:45:52;0.23;;;0.20;;
60030;SDS011;45901;47.600;9.890;2022-11-21T04:48:19;1.60;;;0.40;;
60030;SDS011;45901;47.600;9.890;2022-11-21T04:50:46;1.13;;;0.53;;
60030;SDS011;45901;47.600;9.890;2022-11-21T04:53:14;3.70;;;0.40;;
60030;SDS011;45901;47.600;9.890;2022-11-21T04:55:41;0.87;;;0.40;;
60030;SDS011;45901;47.600;9.890;2022-11-21T04:58:09;0.67;;;0.30;;
60030;SDS011;45901;47.600;9.890;2022-11-21T05:00:37;3.10;;;0.50;;
60030;SDS011;45901;47.600;9.890;2022-11-21T05:03:04;1.27;;;0.40;;
60030;SDS011;45901;47.600;9.890;2022-11-21T05:05:32;1.37;;;0.50;;
60030;SDS011;45901;47.600;9.890;2022-11-21T05:07:59;2.83;;;0.53;;
60030;SDS011;45901;47.600;9.890;2022-11-21T05:10:26;1.00;;;0.30;;
60030;SDS011;45901;47.600;9.890;2022-11-21T05:12:58;4.33;;;0.60;;
60030;SDS011;45901;47.600;9.890;2022-11-21T05:15:44;0.43;;;0.40;;
60030;SDS011;45901;47.600;9.890;2022-11-21T05:18:15;2.47;;;0.60;;
60030;SDS011;45901;47.600;9.890;2022-11-21T05:20:44;0.77;;;0.60;;
60030;SDS011;45901;47.600;9.890;2022-11-21T05:23:11;1.77;;;0.50;;
60030;SDS011;45901;47.600;9.890;2022-11-21T05:25:38;2.93;;;1.00;;
60030;SDS011;45901;47.600;9.890;2022-11-21T05:28:06;2.37;;;0.87;;
60030;SDS011;45901;47.600;9.890;2022-11-21T05:30:33;1.93;;;0.60;;
60030;SDS011;45901;47.600;9.890;2022-11-21T05:33:02;1.93;;;0.60;;
60030;SDS011;45901;47.600;9.890;2022-11-21T05:35:31;2.47;;;0.70;;
60030;SDS011;45901;47.600;9.890;2022-11-21T05:37:58;2.00;;;0.70;;
60030;SDS011;45901;47.600;9.890;2022-11-21T05:40:25;1.47;;;0.80;;
60030;SDS011;45901;47.600;9.890;2022-11-21T05:42:52;2.00;;;0.50;;
60030;SDS011;45901;47.600;9.890;2022-11-21T05:45:38;2.67;;;0.70;;
60030;SDS011;45901;47.600;9.890;2022-11-21T05:48:06;3.47;;;0.50;;
60030;SDS011;45901;47.600;9.890;2022-11-21T05:50:34;4.87;;;0.90;;
60030;SDS011;45901;47.600;9.890;2022-11-21T05:53:02;3.30;;;0.80;;
60030;SDS011;45901;47.600;9.890;2022-11-21T05:55:29;4.10;;;0.60;;
60030;SDS011;45901;47.600;9.890;2022-11-21T05:57:57;0.90;;;0.60;;
60030;SDS011;45901;47.600;9.890;2022-11-21T06:00:25;5.47;;;1.00;;
60030;SDS011;45901;47.600;9.890;2022-11-21T06:02:52;2.70;;;0.80;;
60030;SDS011;45901;47.600;9.890;2022-11-21T06:05:39;2.77;;;1.43;;
60030;SDS011;45901;47.600;9.890;2022-11-21T06:08:06;4.03;;;1.60;;
60030;SDS011;45901;47.600;9.890;2022-11-21T06:10:33;6.37;;;1.40;;
60030;SDS011;45901;47.600;9.890;2022-11-21T06:13:00;4.13;;;1.00;;
60030;SDS011;45901;47.600;9.890;2022-11-21T06:15:46;5.57;;;1.10;;
60030;SDS011;45901;47.600;9.890;2022-11-21T06:18:18;3.00;;;0.77;;
60030;SDS011;45901;47.600;9.890;2022-11-21T06:20:47;3.93;;;0.83;;
60030;SDS011;45901;47.600;9.890;2022-11-21T06:23:15;3.77;;;0.80;;
60030;SDS011;45901;47.600;9.890;2022-11-21T06:25:42;4.23;;;1.20;;
60030;SDS011;45901;47.600;9.890;2022-11-21T06:28:09;4.73;;;0.93;;
60030;SDS011;45901;47.600;9.890;2022-11-21T06:30:37;3.07;;;0.80;;
60030;SDS011;45901;47.600;9.890;2022-11-21T06:33:05;3.03;;;0.87;;
60030;SDS011;45901;47.600;9.890;2022-11-21T06:35:35;2.00;;;0.60;;
60030;SDS011;45901;47.600;9.890;2022-11-21T06:38:05;7.73;;;1.00;;
60030;SDS011;45901;47.600;9.890;2022-11-21T06:40:32;3.60;;;0.87;;
60030;SDS011;45901;47.600;9.890;2022-11-21T06:43:00;2.80;;;1.00;;
60030;SDS011;45901;47.600;9.890;2022-11-21T06:45:27;1.47;;;0.50;;
60030;SDS011;45901;47.600;9.890;2022-11-21T06:47:55;2.63;;;0.60;;
60030;SDS011;45901;47.600;9.890;2022-11-21T06:50:22;5.53;;;1.33;;
60030;SDS011;45901;47.600;9.890;2022-11-21T06:52:49;3.07;;;1.10;;
60030;SDS011;45901;47.600;9.890;2022-11-21T06:55:18;3.77;;;1.00;;
60030;SDS011;45901;47.600;9.890;2022-11-21T06:57:45;3.37;;;0.97;;
60030;SDS011;45901;47.600;9.890;2022-11-21T07:00:13;2.43;;;0.70;;
60030;SDS011;45901;47.600;9.890;2022-11-21T07:02:41;1.97;;;0.80;;
60030;SDS011;45901;47.600;9.890;2022-11-21T07:05:08;3.60;;;1.17;;
60030;SDS011;45901;47.600;9.890;2022-11-21T07:07:36;4.10;;;0.90;;
60030;SDS011;45901;47.600;9.890;2022-11-21T07:10:03;3.20;;;1.20;;
60030;SDS011;45901;47.600;9.890;2022-11-21T07:12:32;2.90;;;0.97;;
60030;SDS011;45901;47.600;9.890;2022-11-21T07:15:17;4.17;;;2.37;;
60030;SDS011;45901;47.600;9.890;2022-11-21T07:17:44;2.67;;;1.50;;
60030;SDS011;45901;47.600;9.890;2022-11-21T07:20:11;5.27;;;1.30;;
60030;SDS011;45901;47.600;9.890;2022-11-21T07:22:39;3.67;;;1.10;;
60030;SDS011;45901;47.600;9.890;2022-11-21T07:25:06;1.60;;;1.17;;
60030;SDS011;45901;47.600;9.890;2022-11-21T07:27:35;3.07;;;1.10;;
60030;SDS011;45901;47.600;9.890;2022-11-21T07:30:03;2.60;;;0.90;;
60030;SDS011;45901;47.600;9.890;2022-11-21T07:32:31;4.37;;;1.13;;
60030;SDS011;45901;47.600;9.890;2022-11-21T07:34:58;3.07;;;0.93;;
60030;SDS011;45901;47.600;9.890;2022-11-21T07:37:25;6.13;;;1.17;;
60030;SDS011;45901;47.600;9.890;2022-11-21T07:39:53;4.83;;;1.37;;
60030;SDS011;45901;47.600;9.890;2022-11-21T07:42:20;4.87;;;1.30;;
60030;SDS011;45901;47.600;9.890;2022-11-21T07:44:48;3.13;;;1.30;;
60030;SDS011;45901;47.600;9.890;2022-11-21T07:47:15;4.70;;;0.80;;
60030;SDS011;45901;47.600;9.890;2022-11-21T07:49:43;3.43;;;1.37;;
60030;SDS011;45901;47.600;9.890;2022-11-21T07:52:10;3.17;;;1.50;;
60030;SDS011;45901;47.600;9.890;2022-11-21T07:54:37;5.00;;;1.60;;
60030;SDS011;45901;47.600;9.890;2022-11-21T07:57:04;4.23;;;1.37;;
60030;SDS011;45901;47.600;9.890;2022-11-21T07:59:31;5.50;;;0.90;;
60030;SDS011;45901;47.600;9.890;2022-11-21T08:02:00;2.37;;;1.20;;
60030;SDS011;45901;47.600;9.890;2022-11-21T08:04:27;2.17;;;1.10;;
60030;SDS011;45901;47.600;9.890;2022-11-21T08:06:55;3.00;;;1.57;;
60030;SDS011;45901;47.600;9.890;2022-11-21T08:09:22;2.83;;;1.33;;
60030;SDS011;45901;47.600;9.890;2022-11-21T08:11:53;7.40;;;2.47;;
60030;SDS011;45901;47.600;9.890;2022-11-21T08:14:20;3.63;;;1.90;;
60030;SDS011;45901;47.600;9.890;2022-11-21T08:16:50;6.03;;;2.07;;
60030;SDS011;45901;47.600;9.890;2022-11-21T08:19:19;4.77;;;1.63;;
60030;SDS011;45901;47.600;9.890;2022-11-21T08:21:46;5.43;;;1.27;;
60030;SDS011;45901;47.600;9.890;2022-11-21T08:24:13;3.90;;;1.63;;
60030;SDS011;45901;47.600;9.890;2022-11-21T08:26:41;2.30;;;1.10;;
60030;SDS011;45901;47.600;9.890;2022-11-21T08:29:09;2.13;;;1.10;;
60030;SDS011;45901;47.600;9.890;2022-11-21T08:31:37;3.70;;;1.20;;
60030;SDS011;45901;47.600;9.890;2022-11-21T08:34:05;2.57;;;1.23;;
60030;SDS011;45901;47.600;9.890;2022-11-21T08:36:34;4.70;;;1.60;;
60030;SDS011;45901;47.600;9.890;2022-11-21T08:39:01;3.60;;;1.50;;
60030;SDS011;45901;47.600;9.890;2022-11-21T08:41:29;1.93;;;1.13;;
60030;SDS011;45901;47.600;9.890;2022-11-21T08:44:10;2.63;;;1.03;;
60030;SDS011;45901;47.600;9.890;2022-11-21T08:46:38;2.50;;;1.10;;
60030;SDS011;45901;47.600;9.890;2022-11-21T08:49:05;4.17;;;1.40;;
60030;SDS011;45901;47.600;9.890;2022-11-21T08:51:34;6.53;;;1.77;;
60030;SDS011;45901;47.600;9.890;2022-11-21T08:54:01;4.70;;;1.43;;
60030;SDS011;45901;47.600;9.890;2022-11-21T08:56:29;4.97;;;1.17;;
60030;SDS011;45901;47.600;9.890;2022-11-21T08:58:56;4.07;;;1.60;;
60030;SDS011;45901;47.600;9.890;2022-11-21T09:01:23;1.47;;;1.13;;
60030;SDS011;45901;47.600;9.890;2022-11-21T09:03:51;2.77;;;1.30;;
60030;SDS011;45901;47.600;9.890;2022-11-21T09:06:18;3.33;;;1.30;;
60030;SDS011;45901;47.600;9.890;2022-11-21T09:08:46;6.63;;;1.27;;
60030;SDS011;45901;47.600;9.890;2022-11-21T09:11:13;3.40;;;1.63;;
60030;SDS011;45901;47.600;9.890;2022-11-21T09:13:41;4.30;;;1.30;;
60030;SDS011;45901;47.600;9.890;2022-11-21T09:16:09;3.70;;;1.60;;
60030;SDS011;45901;47.600;9.890;2022-11-21T09:18:54;3.60;;;1.40;;
60030;SDS011;45901;47.600;9.890;2022-11-21T09:21:22;5.13;;;1.80;;
60030;SDS011;45901;47.600;9.890;2022-11-21T09:23:50;3.43;;;1.10;;
60030;SDS011;45901;47.600;9.890;2022-11-21T09:26:17;3.83;;;0.93;;
60030;SDS011;45901;47.600;9.890;2022-11-21T09:28:45;1.77;;;0.90;;
60030;SDS011;45901;47.600;9.890;2022-11-21T09:31:12;5.53;;;1.43;;
60030;SDS011;45901;47.600;9.890;2022-11-21T09:33:39;2.60;;;1.03;;
60030;SDS011;45901;47.600;9.890;2022-11-21T09:36:06;6.33;;;1.20;;
60030;SDS011;45901;47.600;9.890;2022-11-21T09:38:33;5.90;;;1.50;;
60030;SDS011;45901;47.600;9.890;2022-11-21T09:41:09;6.97;;;2.07;;
60030;SDS011;45901;47.600;9.890;2022-11-21T09:44:09;6.37;;;1.60;;
60030;SDS011;45901;47.600;9.890;2022-11-21T09:46:45;4.63;;;1.17;;
60030;SDS011;45901;47.600;9.890;2022-11-21T09:49:15;4.43;;;1.17;;
60030;SDS011;45901;47.600;9.890;2022-11-21T09:51:43;2.93;;;0.90;;
60030;SDS011;45901;47.600;9.890;2022-11-21T09:54:12;2.07;;;0.90;;
60030;SDS011;45901;47.600;9.890;2022-11-21T09:56:46;3.30;;;0.77;;
60030;SDS011;45901;47.600;9.890;2022-11-21T09:59:18;2.63;;;0.80;;
60030;SDS011;45901;47.600;9.890;2022-11-21T10:01:58;3.67;;;1.00;;
60030;SDS011;45901;47.600;9.890;2022-11-21T10:04:25;2.73;;;0.70;;
60030;SDS011;45901;47.600;9.890;2022-11-21T10:06:56;5.37;;;2.27;;
60030;SDS011;45901;47.600;9.890;2022-11-21T10:09:33;10.03;;;5.13;;
60030;SDS011;45901;47.600;9.890;2022-11-21T10:12:18;11.23;;;5.53;;
60030;SDS011;45901;47.600;9.890;2022-11-21T10:15:08;5.27;;;1.30;;
60030;SDS011;45901;47.600;9.890;2022-11-21T10:18:07;1.97;;;1.03;;
60030;SDS011;45901;47.600;9.890;2022-11-21T10:21:02;1.13;;;0.60;;
60030;SDS011;45901;47.600;9.890;2022-11-21T10:23:46;2.10;;;0.93;;
60030;SDS011;45901;47.600;9.890;2022-11-21T10:26:30;2.40;;;0.93;;
60030;SDS011;45901;47.600;9.890;2022-11-21T10:29:07;2.90;;;0.80;;
60030;SDS011;45901;47.600;9.890;2022-11-21T10:31:42;2.20;;;0.77;;
60030;SDS011;45901;47.600;9.890;2022-11-21T10:34:11;2.27;;;0.90;;
60030;SDS011;45901;47.600;9.890;2022-11-21T10:36:42;3.77;;;1.00;;
60030;SDS011;45901;47.600;9.890;2022-11-21T10:39:16;4.33;;;1.20;;
60030;SDS011;45901;47.600;9.890;2022-11-21T10:41:48;3.03;;;1.00;;
60030;SDS011;45901;47.600;9.890;2022-11-21T10:44:23;2.43;;;0.83;;
60030;SDS011;45901;47.600;9.890;2022-11-21T10:47:14;3.23;;;1.20;;
60030;SDS011;45901;47.600;9.890;2022-11-21T10:49:52;3.50;;;1.23;;
60030;SDS011;45901;47.600;9.890;2022-11-21T10:52:25;4.23;;;0.97;;
60030;SDS011;45901;47.600;9.890;2022-11-21T10:55:04;3.27;;;1.30;;
60030;SDS011;45901;47.600;9.890;2022-11-21T10:57:37;4.63;;;1.83;;
60030;SDS011;45901;47.600;9.890;2022-11-21T11:00:15;2.37;;;0.70;;
60030;SDS011;45901;47.600;9.890;2022-11-21T11:02:59;3.23;;;0.90;;
60030;SDS011;45901;47.600;9.890;2022-11-21T11:05:31;2.87;;;0.83;;
60030;SDS011;45901;47.600;9.890;2022-11-21T11:08:02;8.00;;;2.00;;
60030;SDS011;45901;47.600;9.890;2022-11-21T11:10:33;5.13;;;1.63;;
60030;SDS011;45901;47.600;9.890;2022-11-21T11:13:09;2.97;;;1.00;;
60030;SDS011;45901;47.600;9.890;2022-11-21T11:16:02;4.07;;;0.83;;
60030;SDS011;45901;47.600;9.890;2022-11-21T11:18:32;1.27;;;0.60;;
60030;SDS011;45901;47.600;9.890;2022-11-21T11:21:15;2.87;;;1.00;;
60030;SDS011;45901;47.600;9.890;2022-11-21T11:23:46;3.67;;;0.97;;
60030;SDS011;45901;47.600;9.890;2022-11-21T11:26:17;1.90;;;0.80;;
60030;SDS011;45901;47.600;9.890;2022-11-21T11:28:58;4.00;;;1.10;;
60030;SDS011;45901;47.600;9.890;2022-11-21T11:31:40;6.03;;;1.23;;
60030;SDS011;45901;47.600;9.890;2022-11-21T11:34:10;3.00;;;0.90;;
60030;SDS011;45901;47.600;9.890;2022-11-21T11:36:51;2.93;;;0.70;;
60030;SDS011;45901;47.600;9.890;2022-11-21T11:46:05;4.53;;;1.03;;
60030;SDS011;45901;47.600;9.890;2022-11-21T11:49:16;3.57;;;1.00;;
60030;SDS011;45901;47.600;9.890;2022-11-21T11:52:28;1.60;;;0.50;;
60030;SDS011;45901;47.600;9.890;2022-11-21T11:55:05;3.73;;;1.73;;
60030;SDS011;45901;47.600;9.890;2022-11-21T11:57:40;15.10;;;5.90;;
60030;SDS011;45901;47.600;9.890;2022-11-21T12:00:15;4.47;;;2.20;;
60030;SDS011;45901;47.600;9.890;2022-11-21T12:02:56;8.77;;;2.50;;
60030;SDS011;45901;47.600;9.890;2022-11-21T12:05:30;5.47;;;2.13;;
60030;SDS011;45901;47.600;9.890;2022-11-21T12:08:03;9.00;;;1.50;;
60030;SDS011;45901;47.600;9.890;2022-11-21T12:10:47;21.30;;;2.37;;
60030;SDS011;45901;47.600;9.890;2022-11-21T12:13:39;2.43;;;0.90;;
60030;SDS011;45901;47.600;9.890;2022-11-21T12:16:20;3.00;;;0.90;;
60030;SDS011;45901;47.600;9.890;2022-11-21T12:18:53;3.53;;;0.93;;
60030;SDS011;45901;47.600;9.890;2022-11-21T12:21:27;4.50;;;0.90;;
60030;SDS011;45901;47.600;9.890;2022-11-21T12:24:01;9.97;;;0.90;;
60030;SDS011;45901;47.600;9.890;2022-11-21T12:26:38;2.17;;;0.70;;
60030;SDS011;45901;47.600;9.890;2022-11-21T12:29:22;2.80;;;0.80;;
60030;SDS011;45901;47.600;9.890;2022-11-21T12:38:05;2.63;;;0.77;;
60030;SDS011;45901;47.600;9.890;2022-11-21T12:40:59;2.40;;;0.80;;
60030;SDS011;45901;47.600;9.890;2022-11-21T12:43:58;3.00;;;0.80;;
60030;SDS011;45901;47.600;9.890;2022-11-21T12:46:40;2.47;;;0.70;;
60030;SDS011;45901;47.600;9.890;2022-11-21T12:49:19;2.33;;;0.50;;
60030;SDS011;45901;47.600;9.890;2022-11-21T12:52:13;2.80;;;0.80;;
60030;SDS011;45901;47.600;9.890;2022-11-21T12:55:13;1.87;;;0.40;;
60030;SDS011;45901;47.600;9.890;2022-11-21T13:01:07;3.77;;;1.10;;
60030;SDS011;45901;47.600;9.890;2022-11-21T13:03:46;2.13;;;0.90;;
60030;SDS011;45901;47.600;9.890;2022-11-21T13:06:22;3.33;;;0.97;;
60030;SDS011;45901;47.600;9.890;2022-11-21T13:08:53;5.23;;;0.93;;
60030;SDS011;45901;47.600;9.890;2022-11-21T13:11:37;2.00;;;0.63;;
60030;SDS011;45901;47.600;9.890;2022-11-21T13:14:27;3.33;;;0.60;;
60030;SDS011;45901;47.600;9.890;2022-11-21T13:17:13;3.60;;;0.80;;
60030;SDS011;45901;47.600;9.890;2022-11-21T13:20:00;2.40;;;0.60;;
60030;SDS011;45901;47.600;9.890;2022-11-21T13:22:52;3.63;;;1.03;;
60030;SDS011;45901;47.600;9.890;2022-11-21T13:25:42;1.90;;;0.67;;
60030;SDS011;45901;47.600;9.890;2022-11-21T13:28:26;1.50;;;0.50;;
60030;SDS011;45901;47.600;9.890;2022-11-21T13:31:01;1.80;;;0.73;;
60030;SDS011;45901;47.600;9.890;2022-11-21T13:33:54;3.00;;;0.90;;
60030;SDS011;45901;47.600;9.890;2022-11-21T13:36:38;2.43;;;0.80;;
60030;SDS011;45901;47.600;9.890;2022-11-21T13:39:23;3.83;;;0.90;;
60030;SDS011;45901;47.600;9.890;2022-11-21T13:42:03;1.83;;;0.90;;
60030;SDS011;45901;47.600;9.890;2022-11-21T13:44:58;6.80;;;2.47;;
60030;SDS011;45901;47.600;9.890;2022-11-21T13:51:22;5.37;;;1.57;;
60030;SDS011;45901;47.600;9.890;2022-11-21T13:57:50;3.23;;;1.30;;
60030;SDS011;45901;47.600;9.890;2022-11-21T14:00:37;4.57;;;1.47;;
60030;SDS011;45901;47.600;9.890;2022-11-21T14:03:32;3.43;;;1.53;;
60030;SDS011;45901;47.600;9.890;2022-11-21T14:06:32;4.90;;;2.00;;
60030;SDS011;45901;47.600;9.890;2022-11-21T14:09:17;9.40;;;2.90;;
60030;SDS011;45901;47.600;9.890;2022-11-21T14:11:53;4.13;;;1.47;;
60030;SDS011;45901;47.600;9.890;2022-11-21T14:14:27;2.50;;;1.07;;
60030;SDS011;45901;47.600;9.890;2022-11-21T14:20:16;4.13;;;1.47;;
60030;SDS011;45901;47.600;9.890;2022-11-21T14:22:53;6.97;;;2.37;;
60030;SDS011;45901;47.600;9.890;2022-11-21T14:25:32;4.60;;;2.07;;
60030;SDS011;45901;47.600;9.890;2022-11-21T14:28:08;7.00;;;3.13;;
60030;SDS011;45901;47.600;9.890;2022-11-21T14:30:41;7.00;;;4.77;;
60030;SDS011;45901;47.600;9.890;2022-11-21T14:33:20;9.27;;;4.80;;
60030;SDS011;45901;47.600;9.890;2022-11-21T14:35:58;6.33;;;3.10;;
60030;SDS011;45901;47.600;9.890;2022-11-21T14:38:29;4.27;;;2.00;;
60030;SDS011;45901;47.600;9.890;2022-11-21T14:41:21;2.73;;;1.40;;
60030;SDS011;45901;47.600;9.890;2022-11-21T14:44:02;4.20;;;1.63;;
60030;SDS011;45901;47.600;9.890;2022-11-21T14:46:43;3.23;;;1.20;;
60030;SDS011;45901;47.600;9.890;2022-11-21T14:49:18;3.90;;;1.57;;
60030;SDS011;45901;47.600;9.890;2022-11-21T14:51:52;3.47;;;1.40;;
60030;SDS011;45901;47.600;9.890;2022-11-21T14:54:26;2.57;;;1.00;;
60030;SDS011;45901;47.600;9.890;2022-11-21T14:56:57;3.93;;;1.30;;
60030;SDS011;45901;47.600;9.890;2022-11-21T14:59:27;3.00;;;1.27;;
60030;SDS011;45901;47.600;9.890;2022-11-21T15:01:59;2.57;;;0.90;;
60030;SDS011;45901;47.600;9.890;2022-11-21T15:04:47;3.60;;;0.90;;
60030;SDS011;45901;47.600;9.890;2022-11-21T15:07:51;2.67;;;0.80;;
60030;SDS011;45901;47.600;9.890;2022-11-21T15:10:59;5.47;;;1.60;;
60030;SDS011;45901;47.600;9.890;2022-11-21T15:13:38;5.20;;;2.20;;
60030;SDS011;45901;47.600;9.890;2022-11-21T15:19:28;5.47;;;2.07;;
60030;SDS011;45901;47.600;9.890;2022-11-21T15:29:24;3.67;;;1.57;;
60030;SDS011;45901;47.600;9.890;2022-11-21T15:32:10;3.20;;;1.47;;
60030;SDS011;45901;47.600;9.890;2022-11-21T15:38:24;4.03;;;0.90;;
60030;SDS011;45901;47.600;9.890;2022-11-21T15:41:03;4.17;;;1.20;;
60030;SDS011;45901;47.600;9.890;2022-11-21T15:43:51;4.53;;;1.10;;
60030;SDS011;45901;47.600;9.890;2022-11-21T15:46:20;5.37;;;1.13;;
60030;SDS011;45901;47.600;9.890;2022-11-21T15:48:50;3.93;;;1.03;;
60030;SDS011;45901;47.600;9.890;2022-11-21T15:51:19;4.27;;;1.17;;
60030;SDS011;45901;47.600;9.890;2022-11-21T15:53:49;5.20;;;1.10;;
60030;SDS011;45901;47.600;9.890;2022-11-21T15:56:17;3.87;;;1.30;;
60030;SDS011;45901;47.600;9.890;2022-11-21T15:58:46;3.23;;;1.07;;
60030;SDS011;45901;47.600;9.890;2022-11-21T16:01:16;3.63;;;1.30;;